KBTV/BTV METAR and TAF weather

Enter ICAO airport designator
Station Type Date Time Source
KBTV METAR 2018/07/19 06:54 UTC NOAA

KBTV 190654Z 00000KT 10SM CLR 12/08 A3005 RMK AO2 SLP175 T01170083


Station Type Date Time Source
KBTV Decoded METAR 2018/07/19 06:54 UTC NOAA

BURLINGTON INTERNATIONAL, VT, United States (KBTV) 44-28N 73-09W 105M
Jul 19, 2018 - 02:54 AM EDT / 2018.07.19 0654 UTC
Wind: Calm:0
Visibility: 10 mile(s):0
Sky conditions: clear
Temperature: 53.1 F (11.7 C)
Dew Point: 46.9 F (8.3 C)
Relative Humidity: 79%
Pressure (altimeter): 30.05 in. Hg (1017 hPa)
ob: KBTV 190654Z 00000KT 10SM CLR 12/08 A3005 RMK AO2 SLP175 T01170083
cycle: 7

Station Type Date Time Source
KBTV TAF 2018/07/19 06:42 UTC NOAA

TAF KBTV 190539Z 1906/2006 VRB03KT P6SM SKC


Example: see airport list